METAR Data
IDs: Format: Raw Decoded Include TAF

Data at: 1232 UTC 23 Sep 2018

KHKA 231153Z AUTO 02007KT 5SM -RA BR OVC005 18/17 A3002 RMK AO2 RAE22B33 SLP163 P0003 60010 7//// T01780172 10183 20178 53003 $
KHKA 231126Z AUTO 04005KT 8SM OVC006 18/17 A3001 RMK AO2 RAE22 P0002 T01780167 $
KHKA 231116Z AUTO 05006KT 6SM -RA BR BKN007 OVC049 18/17 A3001 RMK AO2 P0001 T01780167 $
KHKA 231053Z AUTO 05006KT 3SM -RA BR OVC005 18/17 A3001 RMK AO2 RAB17 SLP160 P0002 T01780167 $
KHKA 230953Z AUTO 03005KT 8SM OVC006 18/17 A3000 RMK AO2 SLP156 T01830167 $
KHKA 230853Z AUTO 03009KT 9SM OVC006 18/17 A3001 RMK AO2 SLP160 60005 T01830167 58006 $
KHKA 230753Z AUTO 06006KT 9SM OVC007 18/18 A3001 RMK AO2 SLP160 P0001 T01780178 $
KHKA 230653Z AUTO 04006KT 10SM OVC008 18/18 A3003 RMK AO2 RAE12 SLP167 P0004 T01830178 $
KHKA 230553Z AUTO 08007KT 7SM -RA BKN007 OVC055 18/17 A3002 RMK AO2 SLP166 P0005 60031 T01780172 10183 20178 402280172 58016 $
KHKA 230541Z AUTO 00000KT 6SM -RA BR BKN008 BKN013 OVC050 18/17 A3003 RMK AO2 CIG 005V009 P0004 T01780172 $
KHKA 230520Z AUTO 04007KT 6SM -RA BR OVC010 18/18 A3004 RMK AO2 CIG 006V014 P0002 T01780178 $
KHKA 230453Z AUTO 03007KT 9SM -RA OVC009 18/17 A3005 RMK AO2 CIG 006V011 SLP176 P0004 T01780172 $
KHKA 230422Z AUTO 05006KT 6SM -RA BR OVC009 18/17 A3005 RMK AO2 CIG 005V012 P0002 T01830172 $
KHKA 230353Z AUTO 05005KT 6SM -RA BR OVC011 18/17 A3006 RMK AO2 SLP177 P0005 T01780172 $
KHKA 230340Z AUTO 05006KT 7SM -RA OVC010 18/17 A3006 RMK AO2 P0004 T01780172 $
KHKA 230327Z AUTO 05008KT 7SM -RA OVC009 18/17 A3006 RMK AO2 CIG 008V013 P0003 T01780172 $
KHKA 230253Z AUTO 03007KT 7SM -RA OVC010 18/17 A3007 RMK AO2 CIG 008V012 SLP182 P0006 60017 T01830172 53007 $
KHKA 230153Z AUTO 03008KT 10SM -RA OVC012 18/18 A3006 RMK AO2 RAB18 SLP179 P0005 T01830178 $
KHKA 230053Z AUTO 04009KT 10SM OVC013 18/18 A3006 RMK AO2 RAE39 SLP178 P0006 T01830178 $
KHKA 230010Z AUTO 03007KT 7SM -RA OVC013 18/17 A3006 RMK AO2 P0001 T01830172 $
KHKA 230003Z AUTO 04008KT 7SM -RA FEW008 OVC015 18/17 A3006 RMK AO2 P0001 T01830172 $
KHKA 222353Z AUTO 04007KT 10SM -RA BKN010 OVC015 18/17 A3005 RMK AO2 CIG 007V013 SLP175 P0007 60050 T01830172 10189 20183 55001 $
KHKA 222253Z AUTO 04012KT 7SM -RA OVC014 18/17 A3005 RMK AO2 SLP174 P0008 T01830172 $
KHKA 222212Z AUTO 04009KT 5SM -RA BR BKN014 BKN031 OVC055 18/17 A3005 RMK AO2 P0003 T01830172 $
KHKA 222205Z AUTO 04010KT 5SM -RA BR SCT014 BKN031 OVC060 18/17 A3005 RMK AO2 P0002 T01830172 $
KHKA 222153Z AUTO 04009KT 5SM -RA BR SCT012 BKN029 OVC060 19/17 A3005 RMK AO2 SLP174 P0008 T01890172 $
KHKA 222102Z AUTO 03012KT 5SM -RA SCT012 BKN031 OVC041 19/ A3005 RMK AO2 P0001 T0189 $
KHKA 222053Z AUTO 03009KT 9SM -RA BKN012 OVC031 18/ A3005 RMK AO2 RAE08B34 SLP175 P0009 60027 T0183 56021 $
KHKA 222036Z AUTO 02013KT 10SM -RA BKN010 OVC035 18/ A3005 RMK AO2 RAE08B34 CIG 007V015 P0006 T0183 $
KHKA 222024Z AUTO 02012KT 10SM BKN008 BKN013 OVC037 18/ A3006 RMK AO2 RAE08 CIG 006V011 P0004 T0183 $
KHKA 221953Z AUTO 03013G21KT 7SM -RA FEW006 SCT024 OVC036 19/ A3006 RMK AO2 SLP176 P0009 T0189 $
KHKA 221946Z AUTO 03013G21KT 3SM -RA FEW008 SCT024 OVC034 18/ A3006 RMK AO2 P0008 T0183 $
KHKA 221941Z AUTO 03013G18KT 1SM RA BR FEW008 BKN030 OVC037 18/18 A3006 RMK AO2 P0007 T01830178 $
KHKA 221934Z AUTO 02012KT 3/4SM +RA BR FEW009 BKN031 OVC041 18/18 A3007 RMK AO2 P0006 T01830178 $
KHKA 221929Z AUTO 03012KT 1 3/4SM +RA BR FEW009 BKN029 OVC039 18/18 A3007 RMK AO2 P0005 T01830178 $
KHKA 221923Z AUTO 36010KT 8SM -RA SCT009 SCT030 OVC038 18/18 A3008 RMK AO2 P0004 T01830178 $
KHKA 221853Z AUTO 02012KT 6SM -RA BR FEW021 OVC037 18/17 A3008 RMK AO2 SLP183 P0009 T01830167 $
KHKA 221846Z AUTO 03011KT 4SM -RA BR SCT019 OVC037 18/17 A3008 RMK AO2 P0008 T01830172 $
KHKA 221838Z AUTO 01010KT 2SM -RA BR SCT021 BKN033 OVC044 18/18 A3009 RMK AO2 P0006 T01830178 $
KHKA 221833Z AUTO 36008KT 1SM +RA BR BKN021 BKN040 OVC075 18/18 A3010 RMK AO2 P0006 T01830178 $
KHKA 221826Z AUTO 01009KT 2SM +RA BR SCT017 BKN024 OVC075 18/18 A3010 RMK AO2 P0005 T01830178 $
KHKA 221813Z AUTO 02012G21KT 3SM RA BR SCT013 BKN049 OVC080 18/17 A3008 RMK AO2 P0003 T01830172 $
KHKA 221803Z AUTO 02012KT 3SM RA BR FEW005 BKN014 OVC022 18/17 A3009 RMK AO2 P0001 T01830172 $
KHKA 221755Z AUTO 30005KT 2 1/2SM -RA BR SCT005 BKN012 OVC025 18/17 A3012 RMK AO2 P0000 T01830172 $
KHKA 221753Z AUTO 30004KT 1 3/4SM -RA BR FEW005 BKN015 OVC025 18/18 A3012 RMK AO2 SLP196 6//// T01830178 10183 20172 55002 PNO $
KHKA 221740Z AUTO 29008KT 1/2SM +RA FG FEW005 SCT011 OVC025 18/17 A3012 RMK AO2 PRESRR T01780167 PNO $
KHKA 221728Z AUTO 04007KT 1 1/4SM +RA BR FEW008 BKN025 OVC034 18/17 A3010 RMK AO2 T01780167 PNO $
KHKA 221723Z AUTO 05009KT 3/4SM +RA BR SCT010 BKN025 OVC032 18/17 A3009 RMK AO2 T01780167 PNO $
KHKA 221711Z AUTO 05011KT 1/2SM +RA FG FEW007 BKN011 OVC020 18/17 A3009 RMK AO2 T01780167 PNO $
KHKA 221704Z AUTO VRB06KT 1SM +RA BR FEW007 BKN011 OVC023 18/17 A3011 RMK AO2 T01780167 PNO $
KHKA 221658Z AUTO 02010KT 2SM +RA BR BKN011 OVC023 18/17 A3011 RMK AO2 PRESRR P0000 T01830167 $
KHKA 221653Z AUTO 04010G17KT 3SM +RA BR SCT011 OVC024 18/17 A3011 RMK AO2 RAE03B48 SLP192 P0002 T01830167 $
KHKA 221643Z AUTO 06011G18KT 10SM SCT010 OVC024 18/16 A3009 RMK AO2 RAE03 P0002 T01830161 $
KHKA 221553Z AUTO 04011KT 7SM -RA OVC010 18/16 A3011 RMK AO2 CIG 006V013 SLP195 P0002 T01780161 $
KHKA 221457Z AUTO 05010KT 3SM -RA BR OVC010 18/16 A3012 RMK AO2 CIG 009V013 P0000 T01780161 $
KHKA 221453Z AUTO 05010KT 1 1/2SM RA BR OVC011 18/16 A3012 RMK AO2 RAB01E13B15 CIG 009V013 SLP198 P0000 6//// T01780161 53004 $
KHKA 221449Z AUTO 05009G15KT 1 3/4SM +RA BR OVC011 18/16 A3013 RMK AO2 RAB01E13B15 CIG 009V013 P0000 $
KHKA 221413Z AUTO 06014G20KT 10SM BKN011 BKN060 OVC110 18/16 A3010 RMK AO2 RAB01E13 P0000 T01780161 $
KHKA 221353Z AUTO 05015G22KT 10SM SCT013 BKN022 OVC110 18/16 A3010 RMK AO2 RAE52 SLP192 P0001 T01780161 $
KHKA 221253Z AUTO 04011KT 8SM -RA OVC024 17/16 A3011 RMK AO2 SLP195 T01720156 PNO $
KHKA 221241Z AUTO 04010KT 7SM -RA BKN024 BKN033 OVC110 17/16 A3012 RMK AO2 T01720156 PNO $
KHKA 221153Z AUTO 04013G19KT 10SM -RA BKN110 17/16 A3011 RMK AO2 SLP194 6//// 7//// T01720156 10228 20172 51010 PNO $
KHKA 221053Z AUTO 03012KT 5SM -RA BR SCT045 BKN070 BKN100 17/16 A3010 RMK AO2 SLP192 T01720156 PNO $
KHKA 221044Z AUTO 02011KT 4SM RA BR SCT040 BKN047 OVC080 17/16 A3011 RMK AO2 T01720156 PNO $
KHKA 221017Z AUTO 01014KT 2 1/2SM +RA BR SCT027 OVC045 17/16 A3010 RMK AO2 T01720156 PNO $
KHKA 220953Z AUTO 01010KT 5SM RA BR OVC026 18/16 A3010 RMK AO2 RAB33 SLP190 T01830161 PNO $
KHKA 220853Z AUTO 01010KT 10SM BKN024 OVC085 19/16 A3008 RMK AO2 SLP183 T01940161 55002 $
KHKA 220808Z AUTO 36009KT 10SM BKN025 21/17 A3007 RMK AO2 T02060167 $
KHKA 220753Z AUTO 02011KT 10SM FEW025 21/17 A3007 RMK AO2 SLP179 T02060167 $
KHKA 220653Z AUTO 01007KT 10SM BKN100 22/19 A3008 RMK AO2 SLP181 T02220194 $
KHKA 220553Z AUTO 02009KT 10SM SCT110 23/21 A3008 RMK AO2 RAE08 SLP184 P0000 60004 T02280206 10261 20228 403330228 58001 $
KHKA 220453Z AUTO 06003KT 8SM -RA FEW050 BKN070 OVC100 23/21 A3011 RMK AO2 RAE06B52 SLP193 P0001 T02330211 $
KHKA 220353Z AUTO 03005KT 5SM -RA BR SCT021 BKN060 OVC095 23/21 A3010 RMK AO2 RAB04 SLP189 P0000 T02280206 $
KHKA 220253Z AUTO 03007KT 10SM CLR 23/21 A3009 RMK AO2 SLP186 60003 T02330206 53018 $
KHKA 220153Z AUTO 02006KT 7SM CLR 24/22 A3006 RMK AO2 SLP177 T02440217 $
KHKA 220053Z AUTO 35006KT 8SM CLR 24/22 A3004 RMK AO2 RAE38 SLP169 P0003 T02440222